Bartley, Nebraska
Current Conditions -  °F | °C
As of 8:53 PM on Monday 20 Oct 2014 (Local Time) from KMCK Reporting Station
Clear Clear  
Wind Chill: 60°   Ceiling: Unl
Heat Index: 60°   Visibility: 10mi
Dew Point: 40°   Wind: 5mph
Humidity: 47%   Direction: 180°S
Pressure: 30.07"   Gusts: NA
Location:  40.25°N, 100.31°W
Report Text: KMCK 210153Z AUTO 18004KT 10SM CLR 16/04 A3007 RMK AO2 SLP180 T01560044
Loading
Personal Weather Stations






























Interactive Weather Map
Tropical Storm Tracking
New forecast layout! Learn more

10-Day Weather Forecast

Advertisements
Track Severe Weather on mobile